createdAt,value
2023-05-10T00:01:55.455Z,18.03
2023-05-10T00:04:23.885Z,18.01
2023-05-10T00:06:53.704Z,17.98
2023-05-10T00:09:21.974Z,17.96
2023-05-10T00:11:50.253Z,17.91
2023-05-10T00:14:18.644Z,17.89
2023-05-10T00:16:47.196Z,17.88
2023-05-10T00:19:15.946Z,17.85
2023-05-10T00:21:44.234Z,17.81
2023-05-10T00:24:13.877Z,17.80
2023-05-10T00:26:44.827Z,17.75
2023-05-10T00:29:13.187Z,17.76
2023-05-10T00:31:41.517Z,17.74
2023-05-10T00:34:09.889Z,17.71
2023-05-10T00:36:38.257Z,17.68
2023-05-10T00:39:07.135Z,17.66
2023-05-10T00:41:36.872Z,17.63
2023-05-10T00:44:05.433Z,17.59
2023-05-10T00:46:33.967Z,17.58
2023-05-10T00:49:02.517Z,17.55
2023-05-10T00:51:32.296Z,17.51
2023-05-10T00:54:01.290Z,17.51
2023-05-10T00:56:30.797Z,17.48
2023-05-10T00:59:00.581Z,17.45
2023-05-10T01:01:29.209Z,17.44
2023-05-10T01:03:58.230Z,17.42
2023-05-10T01:06:26.498Z,17.40
2023-05-10T01:08:54.850Z,17.38
2023-05-10T01:11:23.256Z,17.36
2023-05-10T01:14:01.850Z,17.31
2023-05-10T01:16:35.173Z,17.30
2023-05-10T01:19:03.728Z,17.28
2023-05-10T01:21:43.554Z,17.26
2023-05-10T01:25:11.471Z,17.23
2023-05-10T01:28:29.060Z,17.18
2023-05-10T01:31:21.567Z,17.16
2023-05-10T01:34:00.777Z,17.16
2023-05-10T01:36:37.144Z,17.16
2023-05-10T01:39:14.013Z,17.14
2023-05-10T01:41:54.818Z,17.14
2023-05-10T01:44:43.960Z,17.13
2023-05-10T01:47:16.836Z,17.13
2023-05-10T01:49:51.583Z,17.14
2023-05-10T01:52:27.125Z,17.13
2023-05-10T01:55:01.129Z,17.14
2023-05-10T01:57:35.248Z,17.15
2023-05-10T02:00:05.872Z,17.15
2023-05-10T02:02:39.307Z,17.15
2023-05-10T02:05:13.381Z,17.12
2023-05-10T02:07:42.297Z,17.12
2023-05-10T02:10:12.937Z,17.12
2023-05-10T02:12:45.694Z,17.11
2023-05-10T02:15:23.033Z,17.09
2023-05-10T02:17:51.719Z,17.07
2023-05-10T02:20:22.790Z,17.04
2023-05-10T02:22:53.963Z,17.01
2023-05-10T02:25:23.862Z,17.01
2023-05-10T02:27:58.259Z,16.98
2023-05-10T02:30:27.032Z,16.98
2023-05-10T02:32:55.908Z,16.97
2023-05-10T02:35:30.659Z,16.93
2023-05-10T02:38:00.918Z,16.92
2023-05-10T02:40:30.927Z,16.90
2023-05-10T02:42:59.949Z,16.88
2023-05-10T02:45:32.692Z,16.85
2023-05-10T02:48:01.599Z,16.83
2023-05-10T02:50:34.864Z,16.80
2023-05-10T02:53:07.394Z,16.77
2023-05-10T02:55:43.051Z,16.75
2023-05-10T02:58:11.376Z,16.73
2023-05-10T03:00:42.092Z,16.73
2023-05-10T03:03:10.363Z,16.70
2023-05-10T03:05:42.989Z,16.67
2023-05-10T03:08:11.726Z,16.68
2023-05-10T03:10:50.193Z,16.60
2023-05-10T03:13:31.624Z,16.60
2023-05-10T03:16:08.801Z,16.56
2023-05-10T03:18:46.105Z,16.55
2023-05-10T03:21:19.494Z,16.53
2023-05-10T03:23:53.444Z,16.53
2023-05-10T03:26:29.265Z,16.52
2023-05-10T03:29:00.782Z,16.51
2023-05-10T03:31:29.857Z,16.51
2023-05-10T03:33:58.195Z,16.50
2023-05-10T03:36:30.610Z,16.49
2023-05-10T03:38:58.961Z,16.48
2023-05-10T03:41:27.246Z,16.46
2023-05-10T03:43:56.211Z,16.43
2023-05-10T03:46:24.525Z,16.40
2023-05-10T03:48:52.836Z,16.38
2023-05-10T03:51:21.414Z,16.37
2023-05-10T03:53:53.874Z,16.36
2023-05-10T03:56:22.457Z,16.33
2023-05-10T03:58:50.705Z,16.31
2023-05-10T04:01:19.064Z,16.29
2023-05-10T04:03:47.418Z,16.27
2023-05-10T04:06:15.919Z,16.25
2023-05-10T04:08:44.235Z,16.24
2023-05-10T04:11:17.863Z,16.22
2023-05-10T04:13:46.130Z,16.23
2023-05-10T04:16:14.478Z,16.23
2023-05-10T04:18:45.497Z,16.24
2023-05-10T04:21:14.602Z,16.25
2023-05-10T04:23:43.338Z,16.27
2023-05-10T04:26:13.025Z,16.27
2023-05-10T04:28:41.367Z,16.29
2023-05-10T04:31:11.489Z,16.30
2023-05-10T04:33:39.915Z,16.33
2023-05-10T04:36:08.896Z,16.31
2023-05-10T04:38:37.233Z,16.35
2023-05-10T04:41:09.918Z,16.34
2023-05-10T04:43:40.197Z,16.34
2023-05-10T04:46:11.428Z,16.34
2023-05-10T04:48:39.781Z,16.35
2023-05-10T04:51:11.082Z,16.36
2023-05-10T04:53:39.364Z,16.37
2023-05-10T04:56:08.552Z,16.37
2023-05-10T04:58:36.874Z,16.38
2023-05-10T05:01:10.444Z,16.37
2023-05-10T05:03:39.609Z,16.40
2023-05-10T05:06:08.696Z,16.45
2023-05-10T05:08:36.998Z,16.48
2023-05-10T05:11:05.512Z,16.53
2023-05-10T05:13:33.844Z,16.57
2023-05-10T05:16:03.782Z,16.57
2023-05-10T05:18:33.529Z,16.66
2023-05-10T05:21:01.972Z,16.72
2023-05-10T05:23:30.328Z,16.77
2023-05-10T05:25:58.667Z,16.81
2023-05-10T05:28:33.832Z,16.86
2023-05-10T05:31:02.216Z,16.90
2023-05-10T05:33:30.668Z,16.96
2023-05-10T05:36:03.159Z,16.99
2023-05-10T05:38:31.507Z,17.06
2023-05-10T05:41:00.054Z,17.10
2023-05-10T05:43:28.408Z,17.14
2023-05-10T05:45:59.070Z,17.19
2023-05-10T05:48:30.176Z,17.24
2023-05-10T05:51:00.224Z,17.27
2023-05-10T05:53:28.685Z,17.32
2023-05-10T05:55:59.837Z,17.35
2023-05-10T05:58:29.058Z,17.41
2023-05-10T06:00:57.777Z,17.45
2023-05-10T06:03:26.175Z,17.49
2023-05-10T06:05:54.564Z,17.53
2023-05-10T06:08:24.534Z,17.55
2023-05-10T06:10:52.812Z,17.60
2023-05-10T06:13:21.166Z,17.64
2023-05-10T06:15:49.474Z,17.65
2023-05-10T06:18:17.807Z,17.68
2023-05-10T06:20:46.320Z,17.72
2023-05-10T06:23:14.641Z,17.74
2023-05-10T06:25:44.456Z,17.76
2023-05-10T06:28:12.730Z,17.77
2023-05-10T06:30:41.074Z,17.80
2023-05-10T06:33:09.440Z,17.81
2023-05-10T06:35:37.915Z,17.82
2023-05-10T06:38:06.159Z,17.83
2023-05-10T06:40:34.530Z,17.81
2023-05-10T06:43:04.303Z,17.81
2023-05-10T06:45:38.405Z,17.81
2023-05-10T06:48:07.302Z,17.81
2023-05-10T06:50:35.803Z,17.82
2023-05-10T06:53:04.798Z,17.81
2023-05-10T06:55:33.121Z,17.79
2023-05-10T06:58:01.450Z,17.79
2023-05-10T07:00:31.115Z,17.78
2023-05-10T07:02:59.558Z,17.78
2023-05-10T07:05:28.807Z,17.78
2023-05-10T07:07:57.713Z,17.78
2023-05-10T07:10:26.072Z,17.80
2023-05-10T07:12:54.604Z,17.79
2023-05-10T07:15:23.199Z,17.81
2023-05-10T07:17:53.606Z,17.82
2023-05-10T07:20:22.066Z,17.82
2023-05-10T07:22:50.445Z,17.81
2023-05-10T07:25:21.870Z,17.78
2023-05-10T07:27:50.551Z,17.76
2023-05-10T07:30:18.918Z,17.71
2023-05-10T07:32:47.340Z,17.67
2023-05-10T07:35:17.442Z,17.61
2023-05-10T07:37:45.996Z,17.60
2023-05-10T07:40:14.485Z,17.58
2023-05-10T07:42:42.734Z,17.55
2023-05-10T07:45:11.994Z,17.54
2023-05-10T07:47:40.429Z,17.48
2023-05-10T07:50:10.369Z,17.49
2023-05-10T07:52:40.099Z,17.48
2023-05-10T07:55:10.160Z,17.46
2023-05-10T07:57:38.720Z,17.45
2023-05-10T08:00:08.947Z,17.43
2023-05-10T08:02:43.877Z,17.44
2023-05-10T08:05:12.630Z,17.41
2023-05-10T08:07:42.403Z,17.41
2023-05-10T08:10:13.056Z,17.41
2023-05-10T08:12:41.522Z,17.41
2023-05-10T08:15:11.990Z,17.41
2023-05-10T08:17:40.473Z,17.41
2023-05-10T08:20:13.835Z,17.42
2023-05-10T08:22:43.703Z,17.43
2023-05-10T08:25:12.084Z,17.44
2023-05-10T08:27:40.562Z,17.48
2023-05-10T08:30:11.015Z,17.48
2023-05-10T08:32:40.106Z,17.52
2023-05-10T08:35:08.967Z,17.55
2023-05-10T08:37:37.419Z,17.57
2023-05-10T08:40:09.216Z,17.59
2023-05-10T08:42:42.330Z,17.61
2023-05-10T08:45:12.917Z,17.66
2023-05-10T08:47:41.997Z,17.71
2023-05-10T08:50:12.063Z,17.76
2023-05-10T08:52:42.647Z,17.78
2023-05-10T08:55:12.400Z,17.84
2023-05-10T08:57:40.812Z,17.88
2023-05-10T09:00:11.412Z,17.94
2023-05-10T09:02:40.036Z,18.01
2023-05-10T09:05:12.837Z,18.05
2023-05-10T09:07:41.167Z,18.10
2023-05-10T09:10:13.426Z,18.14
2023-05-10T09:12:47.734Z,18.19
2023-05-10T09:15:20.293Z,18.22
2023-05-10T09:17:49.557Z,18.23
2023-05-10T09:20:21.448Z,18.28
2023-05-10T09:22:50.175Z,18.30
2023-05-10T09:25:20.165Z,18.33
2023-05-10T09:27:49.922Z,18.36
2023-05-10T09:30:19.893Z,18.36
2023-05-10T09:32:49.757Z,18.38
2023-05-10T09:35:20.072Z,18.40
2023-05-10T09:37:50.940Z,18.42
2023-05-10T09:40:22.979Z,18.47
2023-05-10T09:42:58.501Z,18.53
2023-05-10T09:45:28.940Z,18.61
2023-05-10T09:47:57.934Z,18.74
2023-05-10T09:50:27.067Z,18.85
2023-05-10T09:52:59.325Z,18.96
2023-05-10T09:55:41.511Z,19.09
2023-05-10T09:58:11.941Z,19.24
2023-05-10T10:00:41.864Z,19.38
2023-05-10T10:03:16.300Z,19.51
2023-05-10T10:05:45.831Z,19.61
2023-05-10T10:08:15.149Z,19.73
2023-05-10T10:10:47.408Z,19.84
2023-05-10T10:13:16.519Z,19.89
2023-05-10T10:15:45.284Z,19.95
2023-05-10T10:18:16.570Z,19.98
2023-05-10T10:20:45.499Z,20.02
2023-05-10T10:23:15.886Z,20.04
2023-05-10T10:25:49.411Z,20.05
2023-05-10T10:28:28.937Z,20.04
2023-05-10T10:30:58.229Z,20.07
2023-05-10T10:33:59.092Z,20.01
2023-05-10T10:36:28.529Z,20.05
2023-05-10T10:39:01.692Z,20.03
2023-05-10T10:41:34.304Z,20.01
2023-05-10T10:44:39.208Z,20.02
2023-05-10T10:47:14.177Z,20.03
2023-05-10T10:49:52.538Z,20.02
2023-05-10T10:52:30.964Z,20.03
2023-05-10T10:55:06.221Z,20.01
2023-05-10T10:57:49.476Z,19.97
2023-05-10T11:00:27.075Z,19.95
2023-05-10T11:02:59.097Z,19.95
2023-05-10T11:05:40.283Z,19.92
2023-05-10T11:08:23.010Z,19.91
2023-05-10T11:11:05.539Z,19.89
2023-05-10T11:13:38.479Z,19.88
2023-05-10T11:16:15.097Z,19.86
2023-05-10T11:18:55.062Z,19.83
2023-05-10T11:21:23.939Z,19.82
2023-05-10T11:23:57.091Z,19.79
2023-05-10T11:26:36.417Z,19.76
2023-05-10T11:29:06.482Z,19.75
2023-05-10T11:31:35.253Z,19.75
2023-05-10T11:34:04.019Z,19.75
2023-05-10T11:36:37.073Z,19.76
2023-05-10T11:39:06.674Z,19.77
2023-05-10T11:41:35.110Z,19.78
2023-05-10T11:44:06.199Z,19.79
2023-05-10T11:46:34.639Z,19.82
2023-05-10T11:49:07.995Z,19.82
2023-05-10T11:51:37.980Z,19.83
2023-05-10T11:54:10.343Z,19.83
2023-05-10T11:56:39.561Z,19.83
2023-05-10T11:59:10.020Z,19.84
2023-05-10T12:01:39.028Z,19.82
2023-05-10T12:04:34.965Z,19.78
2023-05-10T12:07:03.591Z,19.81
2023-05-10T12:09:42.536Z,19.79
2023-05-10T12:12:12.206Z,19.78
2023-05-10T12:14:41.933Z,19.80
2023-05-10T12:17:14.495Z,19.80
2023-05-10T12:19:44.714Z,19.85
2023-05-10T12:22:13.140Z,19.91
2023-05-10T12:24:41.628Z,19.94
2023-05-10T12:27:11.194Z,19.98
2023-05-10T12:29:45.957Z,20.03
2023-05-10T12:32:17.284Z,20.06
2023-05-10T12:34:48.882Z,20.08
2023-05-10T12:37:17.401Z,20.12
2023-05-10T12:39:47.207Z,20.17
2023-05-10T12:42:15.814Z,20.20
2023-05-10T12:44:45.666Z,20.26
2023-05-10T12:47:13.957Z,20.30
2023-05-10T12:49:42.357Z,20.35
2023-05-10T12:52:10.695Z,20.39
2023-05-10T12:54:39.019Z,20.42
2023-05-10T12:57:07.417Z,20.42
2023-05-10T12:59:37.963Z,20.48
2023-05-10T13:02:09.012Z,20.44
2023-05-10T13:04:38.624Z,20.46
2023-05-10T13:07:07.065Z,20.48
2023-05-10T13:09:35.377Z,20.51
2023-05-10T13:12:04.102Z,20.53
2023-05-10T13:14:34.027Z,20.55
2023-05-10T13:17:05.565Z,20.57
2023-05-10T13:19:35.418Z,20.61
2023-05-10T13:22:03.823Z,20.63
2023-05-10T13:24:32.335Z,20.67
2023-05-10T13:27:00.981Z,20.67
2023-05-10T13:29:29.384Z,20.69
2023-05-10T13:31:57.827Z,20.74
2023-05-10T13:34:26.184Z,20.77
2023-05-10T13:37:04.207Z,20.83
2023-05-10T13:39:35.351Z,20.88
2023-05-10T13:42:04.024Z,20.94
2023-05-10T13:44:34.659Z,20.97
2023-05-10T13:47:02.988Z,21.06
2023-05-10T13:49:31.395Z,21.09
2023-05-10T13:52:04.561Z,21.09
2023-05-10T13:54:32.966Z,21.12
2023-05-10T13:57:01.666Z,21.13
2023-05-10T13:59:32.551Z,21.14
2023-05-10T14:02:01.673Z,21.17
2023-05-10T14:04:30.136Z,21.17
2023-05-10T14:06:58.531Z,21.17
2023-05-10T14:09:28.195Z,21.17
2023-05-10T14:11:56.887Z,21.16
2023-05-10T14:14:25.239Z,21.14
2023-05-10T14:16:53.573Z,21.14
2023-05-10T14:19:21.853Z,21.13
2023-05-10T14:21:53.554Z,21.13
2023-05-10T14:24:21.836Z,21.13
2023-05-10T14:26:54.598Z,21.15
2023-05-10T14:29:23.019Z,21.14
2023-05-10T14:31:52.053Z,21.15
2023-05-10T14:34:20.937Z,21.12
2023-05-10T14:36:49.287Z,21.06
2023-05-10T14:39:17.563Z,21.05
2023-05-10T14:41:46.723Z,21.03
2023-05-10T14:44:17.175Z,21.00
2023-05-10T14:46:45.509Z,20.96
2023-05-10T14:49:13.864Z,20.83
2023-05-10T14:51:42.549Z,20.71
2023-05-10T14:54:10.841Z,20.59
2023-05-10T14:56:39.455Z,20.46
2023-05-10T14:59:07.780Z,20.37
2023-05-10T15:01:38.697Z,20.29
2023-05-10T15:04:07.346Z,20.20
2023-05-10T15:06:37.932Z,20.15
2023-05-10T15:09:06.577Z,20.08
2023-05-10T15:11:35.078Z,20.02
2023-05-10T15:14:03.793Z,19.98
2023-05-10T15:16:34.300Z,19.91
2023-05-10T15:19:05.859Z,19.85
2023-05-10T15:21:39.649Z,19.78
2023-05-10T15:24:08.211Z,19.71
2023-05-10T15:26:36.787Z,19.61
2023-05-10T15:29:05.272Z,19.52
2023-05-10T15:31:36.139Z,19.43
2023-05-10T15:34:06.045Z,19.36
2023-05-10T15:36:34.715Z,19.29
2023-05-10T15:39:03.747Z,19.20
2023-05-10T15:41:32.189Z,19.14
2023-05-10T15:44:00.763Z,19.08
2023-05-10T15:46:29.968Z,19.01
2023-05-10T15:48:59.275Z,18.93
2023-05-10T15:51:29.032Z,18.90
2023-05-10T15:54:07.003Z,18.84
2023-05-10T15:56:36.320Z,18.78
2023-05-10T15:59:06.078Z,18.74
2023-05-10T16:01:34.547Z,18.70
2023-05-10T16:04:03.066Z,18.69
2023-05-10T16:06:32.821Z,18.68
2023-05-10T16:09:01.388Z,18.65
2023-05-10T16:11:29.682Z,18.63
2023-05-10T16:13:58.115Z,18.63
2023-05-10T16:16:26.570Z,18.62
2023-05-10T16:18:55.072Z,18.61
2023-05-10T16:21:23.454Z,18.60
2023-05-10T16:23:53.139Z,18.58
2023-05-10T16:26:21.915Z,18.58
2023-05-10T16:28:50.686Z,18.57
2023-05-10T16:31:20.161Z,18.56
2023-05-10T16:33:48.548Z,18.53
2023-05-10T16:36:16.985Z,18.51
2023-05-10T16:38:45.257Z,18.49
2023-05-10T16:41:15.005Z,18.47
2023-05-10T16:43:43.318Z,18.46
2023-05-10T16:46:13.077Z,18.46
2023-05-10T16:48:41.439Z,18.44
2023-05-10T16:51:09.772Z,18.44
2023-05-10T16:53:38.221Z,18.41
2023-05-10T16:56:07.125Z,18.37
2023-05-10T16:58:36.920Z,18.34
2023-05-10T17:01:05.451Z,18.32
2023-05-10T17:03:34.016Z,18.30
2023-05-10T17:06:02.593Z,18.27
2023-05-10T17:08:30.923Z,18.26
2023-05-10T17:11:03.515Z,18.24
2023-05-10T17:13:32.291Z,18.23
2023-05-10T17:16:04.831Z,18.21
2023-05-10T17:18:33.383Z,18.18
2023-05-10T17:21:01.731Z,18.15
2023-05-10T17:23:30.269Z,18.14
2023-05-10T17:26:00.216Z,18.12
2023-05-10T17:28:29.981Z,18.11
2023-05-10T17:30:59.108Z,18.11
2023-05-10T17:33:28.880Z,18.07
2023-05-10T17:35:57.501Z,18.06
2023-05-10T17:38:25.969Z,18.04
2023-05-10T17:40:54.923Z,18.02
2023-05-10T17:43:23.894Z,18.01
2023-05-10T17:45:52.204Z,17.99
2023-05-10T17:48:20.494Z,17.96
2023-05-10T17:50:51.239Z,17.94
2023-05-10T17:53:19.848Z,17.92
2023-05-10T17:55:48.272Z,17.90
2023-05-10T17:58:16.601Z,17.87
2023-05-10T18:00:44.960Z,17.88
2023-05-10T18:03:13.366Z,17.86
2023-05-10T18:05:41.862Z,17.84
2023-05-10T18:08:11.566Z,17.83
2023-05-10T18:10:41.484Z,17.81
2023-05-10T18:13:10.095Z,17.78
2023-05-10T18:15:38.660Z,17.76
2023-05-10T18:18:11.916Z,17.72
2023-05-10T18:20:41.141Z,17.71
2023-05-10T18:23:10.850Z,17.69
2023-05-10T18:25:39.150Z,17.67
2023-05-10T18:28:16.240Z,17.64
2023-05-10T18:30:47.841Z,17.63
2023-05-10T18:33:16.136Z,17.61
2023-05-10T18:35:44.695Z,17.59
2023-05-10T18:38:14.498Z,17.56
2023-05-10T18:40:43.442Z,17.55
2023-05-10T18:43:11.704Z,17.54
2023-05-10T18:45:40.170Z,17.51
2023-05-10T18:48:08.898Z,17.48
2023-05-10T18:50:37.253Z,17.47
2023-05-10T18:53:07.950Z,17.44
2023-05-10T18:55:37.665Z,17.42
2023-05-10T18:58:06.000Z,17.41
2023-05-10T19:00:34.374Z,17.38
2023-05-10T19:03:02.655Z,17.36
2023-05-10T19:05:31.647Z,17.35
2023-05-10T19:07:59.954Z,17.34
2023-05-10T19:10:28.209Z,17.32
2023-05-10T19:12:58.385Z,17.29
2023-05-10T19:15:26.769Z,17.27
2023-05-10T19:17:57.824Z,17.24
2023-05-10T19:20:26.639Z,17.21
2023-05-10T19:23:09.006Z,17.19
2023-05-10T19:25:39.205Z,17.15
2023-05-10T19:28:09.092Z,17.13
2023-05-10T19:30:37.904Z,17.10
2023-05-10T19:33:06.275Z,17.07
2023-05-10T19:35:34.574Z,17.05
2023-05-10T19:38:02.951Z,17.04
2023-05-10T19:40:31.296Z,16.98
2023-05-10T19:43:00.424Z,16.97
2023-05-10T19:45:30.279Z,16.95
2023-05-10T19:47:58.764Z,16.94
2023-05-10T19:50:27.139Z,16.93
2023-05-10T19:52:55.513Z,16.93
2023-05-10T19:55:32.026Z,16.89
2023-05-10T19:58:01.574Z,16.89
2023-05-10T20:00:34.035Z,16.88
2023-05-10T20:03:03.088Z,16.85
2023-05-10T20:05:31.412Z,16.84
2023-05-10T20:07:59.757Z,16.85
2023-05-10T20:10:28.073Z,16.83
2023-05-10T20:12:56.503Z,16.82
2023-05-10T20:15:25.096Z,16.80
2023-05-10T20:17:54.877Z,16.79
2023-05-10T20:20:23.757Z,16.77
2023-05-10T20:22:52.407Z,16.76
2023-05-10T20:25:21.318Z,16.75
2023-05-10T20:27:50.896Z,16.73
2023-05-10T20:30:19.650Z,16.71
2023-05-10T20:32:48.322Z,16.70
2023-05-10T20:35:18.304Z,16.69
2023-05-10T20:37:48.356Z,16.67
2023-05-10T20:40:16.873Z,16.67
2023-05-10T20:42:45.318Z,16.65
2023-05-10T20:45:13.833Z,16.62
2023-05-10T20:47:47.332Z,16.58
2023-05-10T20:50:17.391Z,16.57
2023-05-10T20:52:46.026Z,16.55
2023-05-10T20:55:14.494Z,16.52
2023-05-10T20:57:48.000Z,16.50
2023-05-10T21:00:17.538Z,16.48
2023-05-10T21:02:47.158Z,16.49
2023-05-10T21:05:18.113Z,16.44
2023-05-10T21:07:46.500Z,16.43
2023-05-10T21:10:14.897Z,16.42
2023-05-10T21:12:43.267Z,16.42
2023-05-10T21:15:12.778Z,16.38
2023-05-10T21:17:41.088Z,16.35
2023-05-10T21:20:11.122Z,16.34
2023-05-10T21:22:40.998Z,16.31
2023-05-10T21:25:10.308Z,16.30
2023-05-10T21:27:38.702Z,16.28
2023-05-10T21:30:09.065Z,16.26
2023-05-10T21:32:37.770Z,16.23
2023-05-10T21:35:07.430Z,16.24
2023-05-10T21:37:35.777Z,16.22
2023-05-10T21:40:06.512Z,16.22
2023-05-10T21:42:34.816Z,16.22
2023-05-10T21:45:03.128Z,16.20
2023-05-10T21:47:37.260Z,16.18
2023-05-10T21:50:10.044Z,16.17
2023-05-10T21:52:38.801Z,16.15
2023-05-10T21:55:10.437Z,16.14
2023-05-10T21:57:44.798Z,16.11
2023-05-10T22:00:16.337Z,16.10
2023-05-10T22:02:44.908Z,16.07
2023-05-10T22:05:13.315Z,16.06
2023-05-10T22:07:41.658Z,16.02
2023-05-10T22:10:12.150Z,16.00
2023-05-10T22:12:40.516Z,16.01
2023-05-10T22:15:10.960Z,15.99
2023-05-10T22:17:40.439Z,15.98
2023-05-10T22:20:10.485Z,15.96
2023-05-10T22:22:38.807Z,15.95
2023-05-10T22:25:08.521Z,15.95
2023-05-10T22:27:40.969Z,15.95
2023-05-10T22:30:10.815Z,15.95
2023-05-10T22:32:39.209Z,15.93
2023-05-10T22:35:09.305Z,15.91
2023-05-10T22:37:37.611Z,15.91
2023-05-10T22:40:07.656Z,15.90
2023-05-10T22:42:37.325Z,15.89
2023-05-10T22:45:06.945Z,15.90
2023-05-10T22:47:38.089Z,15.89
2023-05-10T22:50:07.952Z,15.88
2023-05-10T22:52:38.795Z,15.84
2023-05-10T22:55:08.605Z,15.87
2023-05-10T22:57:38.404Z,15.87
2023-05-10T23:00:09.804Z,15.87
2023-05-10T23:02:38.177Z,15.86
2023-05-10T23:05:08.250Z,15.86
2023-05-10T23:07:37.018Z,15.83
2023-05-10T23:10:05.885Z,15.85
2023-05-10T23:12:34.712Z,15.85
2023-05-10T23:15:04.631Z,15.83
2023-05-10T23:17:32.974Z,15.82
2023-05-10T23:20:01.341Z,15.81
2023-05-10T23:22:32.710Z,15.81
2023-05-10T23:25:01.039Z,15.78
2023-05-10T23:27:30.660Z,15.80
2023-05-10T23:29:59.150Z,15.78
2023-05-10T23:32:28.930Z,15.77
2023-05-10T23:34:57.254Z,15.76
2023-05-10T23:37:28.935Z,15.74
2023-05-10T23:39:57.261Z,15.72
2023-05-10T23:42:25.599Z,15.71
2023-05-10T23:44:53.929Z,15.69
2023-05-10T23:47:22.266Z,15.67
2023-05-10T23:49:52.851Z,15.63
2023-05-10T23:52:24.806Z,15.62
2023-05-10T23:54:53.701Z,15.60
2023-05-10T23:57:22.224Z,15.58
2023-05-10T23:59:50.646Z,15.57
